createdAt,value
2022-12-06T00:01:33.590Z,94112.84
2022-12-06T00:04:05.213Z,94113.25
2022-12-06T00:06:37.372Z,94108.38
2022-12-06T00:09:05.382Z,94102.25
2022-12-06T00:11:35.316Z,94107.75
2022-12-06T00:14:06.513Z,94095.94
2022-12-06T00:16:35.886Z,94105.09
2022-12-06T00:19:05.054Z,94095.53
2022-12-06T00:21:33.978Z,94098.38
2022-12-06T00:24:11.005Z,94100.00
2022-12-06T00:26:41.631Z,94095.50
2022-12-06T00:29:23.632Z,94087.38
2022-12-06T00:31:51.671Z,94090.22
2022-12-06T00:34:19.567Z,94087.78
2022-12-06T00:36:48.061Z,94081.25
2022-12-06T00:39:17.638Z,94077.41
2022-12-06T00:41:45.654Z,94065.44
2022-12-06T00:44:13.694Z,94079.25
2022-12-06T00:46:41.911Z,94064.34
2022-12-06T00:49:10.240Z,94069.03
2022-12-06T00:51:39.187Z,94075.34
2022-12-06T00:54:07.632Z,94071.88
2022-12-06T00:56:37.038Z,94072.28
2022-12-06T00:59:06.167Z,94062.38
2022-12-06T01:01:36.450Z,94070.66
2022-12-06T01:04:07.206Z,94064.81
2022-12-06T01:06:37.491Z,94071.91
2022-12-06T01:09:08.385Z,94076.84
2022-12-06T01:11:36.610Z,94069.91
2022-12-06T01:14:04.719Z,94063.84
2022-12-06T01:16:33.640Z,94071.38
2022-12-06T01:19:04.383Z,94071.34
2022-12-06T01:21:32.495Z,94063.47
2022-12-06T01:24:00.377Z,94064.47
2022-12-06T01:26:31.812Z,94059.78
2022-12-06T01:29:00.371Z,94059.16
2022-12-06T01:31:37.104Z,94062.25
2022-12-06T01:34:07.787Z,94055.69
2022-12-06T01:36:35.913Z,94043.91
2022-12-06T01:39:07.182Z,94046.16
2022-12-06T01:41:35.325Z,94049.81
2022-12-06T01:44:04.620Z,94053.69
2022-12-06T01:46:38.128Z,94048.00
2022-12-06T01:49:29.546Z,94037.19
2022-12-06T01:52:02.773Z,94045.72
2022-12-06T01:54:30.925Z,94047.75
2022-12-06T01:57:02.133Z,94040.00
2022-12-06T01:59:30.759Z,94047.13
2022-12-06T02:01:59.363Z,94048.97
2022-12-06T02:04:31.294Z,94047.34
2022-12-06T02:07:01.248Z,94048.53
2022-12-06T02:09:30.225Z,94031.06
2022-12-06T02:11:58.307Z,94028.03
2022-12-06T02:14:35.633Z,94045.31
2022-12-06T02:17:15.652Z,94043.47
2022-12-06T02:20:05.658Z,94039.66
2022-12-06T02:23:11.128Z,94038.78
2022-12-06T02:25:57.272Z,94033.31
2022-12-06T02:28:43.072Z,94036.38
2022-12-06T02:31:21.818Z,94034.16
2022-12-06T02:33:54.029Z,94033.75
2022-12-06T02:36:42.265Z,94023.81
2022-12-06T02:39:16.679Z,94015.88
2022-12-06T02:42:02.778Z,94009.16
2022-12-06T02:44:36.734Z,94018.28
2022-12-06T02:47:08.201Z,94013.81
2022-12-06T02:49:39.607Z,94017.91
2022-12-06T02:52:07.600Z,94019.09
2022-12-06T02:54:36.104Z,94014.25
2022-12-06T02:57:04.076Z,94006.13
2022-12-06T03:01:13.388Z,94012.22
2022-12-06T03:04:04.664Z,93980.47
2022-12-06T03:06:59.748Z,94008.16
2022-12-06T03:09:50.173Z,94006.50
2022-12-06T03:12:39.447Z,94006.94
2022-12-06T03:15:34.463Z,94008.94
2022-12-06T03:18:12.249Z,94006.72
2022-12-06T03:20:47.671Z,93996.78
2022-12-06T03:23:20.196Z,93993.94
2022-12-06T03:25:49.979Z,94005.31
2022-12-06T03:28:20.876Z,94001.47
2022-12-06T03:30:52.304Z,94000.25
2022-12-06T03:33:23.750Z,93998.63
2022-12-06T03:35:53.356Z,93999.81
2022-12-06T03:39:02.497Z,93994.97
2022-12-06T03:41:36.658Z,93992.50
2022-12-06T03:44:05.201Z,93992.09
2022-12-06T03:46:44.738Z,94001.66
2022-12-06T03:49:20.046Z,93988.03
2022-12-06T03:51:48.681Z,93988.63
2022-12-06T03:54:16.714Z,93991.88
2022-12-06T03:56:44.772Z,93991.88
2022-12-06T03:59:12.741Z,93991.69
2022-12-06T04:01:40.736Z,93978.69
2022-12-06T04:04:10.665Z,93990.06
2022-12-06T04:06:38.647Z,93992.50
2022-12-06T04:09:24.959Z,93981.69
2022-12-06T04:11:52.980Z,93986.00
2022-12-06T04:14:21.096Z,93982.72
2022-12-06T04:17:07.667Z,93990.44
2022-12-06T04:19:35.540Z,93988.22
2022-12-06T04:22:22.138Z,93990.44
2022-12-06T04:24:50.081Z,93986.97
2022-12-06T04:27:36.236Z,93979.28
2022-12-06T04:30:22.931Z,93985.38
2022-12-06T04:33:09.786Z,93981.31
2022-12-06T04:35:56.165Z,93981.91
2022-12-06T04:38:42.225Z,93982.91
2022-12-06T04:41:11.168Z,93983.34
2022-12-06T04:43:42.335Z,93985.56
2022-12-06T04:46:18.424Z,93989.66
2022-12-06T04:48:46.780Z,93986.00
2022-12-06T04:51:15.117Z,93994.09
2022-12-06T04:53:43.369Z,93991.28
2022-12-06T04:56:11.579Z,93994.16
2022-12-06T04:58:39.553Z,94007.97
2022-12-06T05:01:07.819Z,93996.19
2022-12-06T05:03:40.868Z,93989.06
2022-12-06T05:06:12.113Z,93991.50
2022-12-06T05:08:40.062Z,93996.19
2022-12-06T05:11:08.096Z,93996.59
2022-12-06T05:13:36.649Z,93991.72
2022-12-06T05:16:06.304Z,93994.97
2022-12-06T05:18:34.976Z,93996.38
2022-12-06T05:21:14.013Z,94000.63
2022-12-06T05:23:42.583Z,94003.25
2022-12-06T05:26:19.616Z,93998.19
2022-12-06T05:28:48.292Z,94004.28
2022-12-06T05:31:17.113Z,93997.41
2022-12-06T05:33:45.988Z,94006.91
2022-12-06T05:36:17.547Z,94008.53
2022-12-06T05:38:51.104Z,93995.16
2022-12-06T05:41:21.504Z,94000.03
2022-12-06T05:43:49.675Z,94007.34
2022-12-06T05:46:18.605Z,94007.75
2022-12-06T05:48:46.778Z,94002.88
2022-12-06T05:51:14.842Z,94004.53
2022-12-06T05:53:42.806Z,93988.25
2022-12-06T05:56:13.059Z,93989.66
2022-12-06T05:58:41.019Z,93985.38
2022-12-06T06:01:09.860Z,93983.59
2022-12-06T06:03:43.825Z,93983.38
2022-12-06T06:06:13.631Z,93979.31
2022-12-06T06:08:41.660Z,93985.38
2022-12-06T06:11:09.779Z,93989.59
2022-12-06T06:13:37.887Z,93993.31
2022-12-06T06:16:06.604Z,93993.72
2022-12-06T06:18:34.567Z,93997.81
2022-12-06T06:21:02.715Z,94002.06
2022-12-06T06:23:31.088Z,93997.38
2022-12-06T06:25:59.040Z,93994.34
2022-12-06T06:28:26.996Z,93997.19
2022-12-06T06:30:55.056Z,94000.44
2022-12-06T06:33:22.999Z,93995.94
2022-12-06T06:35:50.892Z,93986.59
2022-12-06T06:38:18.770Z,93992.28
2022-12-06T06:40:47.456Z,93997.16
2022-12-06T06:43:18.855Z,93997.53
2022-12-06T06:45:56.024Z,93990.19
2022-12-06T06:48:25.471Z,93982.41
2022-12-06T06:50:57.216Z,93982.34
2022-12-06T06:53:28.036Z,93980.56
2022-12-06T06:55:56.067Z,93979.09
2022-12-06T06:58:24.841Z,93974.44
2022-12-06T07:00:58.375Z,93975.81
2022-12-06T07:03:28.344Z,93977.28
2022-12-06T07:06:04.903Z,93978.25
2022-12-06T07:08:33.183Z,93979.44
2022-12-06T07:11:01.511Z,93968.69
2022-12-06T07:13:30.794Z,93961.56
2022-12-06T07:15:59.284Z,93970.03
2022-12-06T07:18:27.181Z,93962.31
2022-12-06T07:21:04.212Z,93958.50
2022-12-06T07:23:34.017Z,93964.97
2022-12-06T07:26:07.149Z,93955.53
2022-12-06T07:28:40.057Z,93954.69
2022-12-06T07:31:14.416Z,93959.00
2022-12-06T07:33:43.672Z,93956.50
2022-12-06T07:36:13.802Z,93957.16
2022-12-06T07:38:43.649Z,93958.34
2022-12-06T07:41:32.204Z,93956.09
2022-12-06T07:44:20.256Z,93959.44
2022-12-06T07:46:48.845Z,93955.47
2022-12-06T07:49:17.849Z,93962.72
2022-12-06T07:51:46.619Z,93941.53
2022-12-06T07:54:16.523Z,93952.50
2022-12-06T07:56:47.846Z,93947.88
2022-12-06T07:59:15.825Z,93962.91
2022-12-06T08:01:44.053Z,93962.13
2022-12-06T08:04:12.112Z,93939.03
2022-12-06T08:06:40.700Z,93956.81
2022-12-06T08:09:09.367Z,93962.31
2022-12-06T08:11:37.314Z,93965.38
2022-12-06T08:14:05.745Z,93956.81
2022-12-06T08:16:33.958Z,93967.94
2022-12-06T08:19:01.905Z,93958.78
2022-12-06T08:21:30.468Z,93964.03
2022-12-06T08:23:58.502Z,93949.25
2022-12-06T08:26:26.494Z,93958.91
2022-12-06T08:28:54.507Z,93960.34
2022-12-06T08:31:24.698Z,93955.38
2022-12-06T08:33:52.746Z,93959.91
2022-12-06T08:36:22.481Z,93957.78
2022-12-06T08:38:52.062Z,93951.75
2022-12-06T08:41:39.807Z,93939.03
2022-12-06T08:44:10.106Z,93945.84
2022-12-06T08:46:38.302Z,93942.47
2022-12-06T08:49:06.367Z,93938.63
2022-12-06T08:51:36.197Z,93939.16
2022-12-06T08:54:05.472Z,93929.75
2022-12-06T08:56:33.604Z,93942.34
2022-12-06T08:59:01.656Z,93939.09
2022-12-06T09:01:37.386Z,93934.78
2022-12-06T09:04:08.680Z,93931.47
2022-12-06T09:06:39.233Z,93925.38
2022-12-06T09:09:08.565Z,93911.13
2022-12-06T09:11:37.194Z,93923.25
2022-12-06T09:14:05.845Z,93908.03
2022-12-06T09:16:33.883Z,93915.63
2022-12-06T09:19:02.062Z,93915.44
2022-12-06T09:21:30.864Z,93908.28
2022-12-06T09:23:59.546Z,93911.38
2022-12-06T09:26:29.169Z,93906.63
2022-12-06T09:28:58.380Z,93909.47
2022-12-06T09:31:26.454Z,93909.59
2022-12-06T09:33:54.672Z,93910.78
2022-12-06T09:36:27.811Z,93900.03
2022-12-06T09:39:00.860Z,93901.50
2022-12-06T09:41:58.937Z,93887.91
2022-12-06T09:44:46.059Z,93880.69
2022-12-06T09:47:22.641Z,93857.69
2022-12-06T09:50:14.837Z,93852.53
2022-12-06T09:52:57.735Z,93846.25
2022-12-06T09:55:40.857Z,93845.81
2022-12-06T09:58:17.583Z,93843.69
2022-12-06T10:00:57.236Z,93835.31
2022-12-06T10:03:28.136Z,93824.94
2022-12-06T10:06:03.106Z,93827.63
2022-12-06T10:08:49.625Z,93831.13
2022-12-06T10:11:35.977Z,93828.75
2022-12-06T10:14:34.964Z,93822.03
2022-12-06T10:17:35.816Z,93822.13
2022-12-06T10:20:24.810Z,93806.09
2022-12-06T10:23:22.043Z,93792.66
2022-12-06T10:26:05.584Z,93765.59
2022-12-06T10:28:39.390Z,93761.94
2022-12-06T10:31:31.074Z,93757.53
2022-12-06T10:34:27.821Z,93758.13
2022-12-06T10:37:09.507Z,93754.34
2022-12-06T10:39:54.596Z,93747.50
2022-12-06T10:42:43.555Z,93739.09
2022-12-06T10:45:37.354Z,93743.75
2022-12-06T10:48:15.163Z,93735.22
2022-12-06T10:50:46.092Z,93736.31
2022-12-06T10:53:18.960Z,93742.81
2022-12-06T10:55:54.994Z,93736.13
2022-12-06T10:58:30.989Z,93737.00
2022-12-06T11:01:03.219Z,93745.88
2022-12-06T11:03:50.343Z,93745.78
2022-12-06T11:07:02.673Z,93747.38
2022-12-06T11:09:49.400Z,93741.53
2022-12-06T11:12:31.969Z,93737.81
2022-12-06T11:15:24.556Z,93726.22
2022-12-06T11:18:10.359Z,93719.44
2022-12-06T11:20:52.039Z,93715.22
2022-12-06T11:23:29.561Z,93717.34
2022-12-06T11:26:03.639Z,93705.44
2022-12-06T11:28:38.025Z,93714.94
2022-12-06T11:31:23.729Z,93712.34
2022-12-06T11:33:51.925Z,93710.00
2022-12-06T11:36:21.927Z,93712.38
2022-12-06T11:38:50.107Z,93714.59
2022-12-06T11:41:28.045Z,93711.50
2022-12-06T11:43:56.619Z,93713.88
2022-12-06T11:46:25.549Z,93712.31
2022-12-06T11:48:54.525Z,93719.72
2022-12-06T11:51:24.504Z,93721.69
2022-12-06T11:53:58.514Z,93721.72
2022-12-06T11:56:30.190Z,93719.69
2022-12-06T11:59:27.375Z,93718.59
2022-12-06T12:02:01.559Z,93725.47
2022-12-06T12:04:41.418Z,93718.53
2022-12-06T12:07:20.368Z,93717.28
2022-12-06T12:09:54.287Z,93708.09
2022-12-06T12:12:56.906Z,93712.72
2022-12-06T12:15:27.831Z,93709.19
2022-12-06T12:17:58.763Z,93706.44
2022-12-06T12:20:30.471Z,93697.31
2022-12-06T12:23:13.633Z,93692.94
2022-12-06T12:25:43.929Z,93692.81
2022-12-06T12:28:27.094Z,93690.16
2022-12-06T12:31:00.624Z,93696.44
2022-12-06T12:33:29.319Z,93686.13
2022-12-06T12:36:16.064Z,93687.84
2022-12-06T12:38:54.396Z,93687.50
2022-12-06T12:41:41.142Z,93677.94
2022-12-06T12:44:38.154Z,93675.50
2022-12-06T12:47:21.264Z,93662.56
2022-12-06T12:50:04.064Z,93658.97
2022-12-06T12:52:38.351Z,93668.19
2022-12-06T12:55:16.084Z,93658.06
2022-12-06T12:57:46.721Z,93659.78
2022-12-06T13:00:17.066Z,93661.88
2022-12-06T13:02:51.386Z,93652.75
2022-12-06T13:05:43.424Z,93658.97
2022-12-06T13:08:14.008Z,93655.41
2022-12-06T13:10:44.734Z,93653.69
2022-12-06T13:13:17.473Z,93656.44
2022-12-06T13:15:52.624Z,93662.34
2022-12-06T13:18:25.339Z,93660.81
2022-12-06T13:20:56.916Z,93659.06
2022-12-06T13:23:29.647Z,93661.16
2022-12-06T13:26:26.957Z,93660.84
2022-12-06T13:29:00.105Z,93664.81
2022-12-06T13:31:33.636Z,93653.72
2022-12-06T13:34:14.175Z,93655.34
2022-12-06T13:36:42.508Z,93655.25
2022-12-06T13:39:31.711Z,93661.19
2022-12-06T13:42:20.443Z,93656.81
2022-12-06T13:44:48.378Z,93657.44
2022-12-06T13:47:38.485Z,93656.53
2022-12-06T13:50:18.110Z,93656.25
2022-12-06T13:52:46.120Z,93650.38
2022-12-06T13:55:26.305Z,93654.53
2022-12-06T13:58:17.423Z,93650.16
2022-12-06T14:00:49.726Z,93655.22
2022-12-06T14:03:17.731Z,93655.22
2022-12-06T14:06:15.794Z,93639.44
2022-12-06T14:08:53.688Z,93643.97
2022-12-06T14:11:27.528Z,93638.66
2022-12-06T14:13:55.542Z,93644.66
2022-12-06T14:17:02.459Z,93640.03
2022-12-06T14:19:41.566Z,93645.91
2022-12-06T14:22:34.474Z,93643.22
2022-12-06T14:25:06.031Z,93638.75
2022-12-06T14:27:42.129Z,93645.34
2022-12-06T14:30:25.461Z,93645.03
2022-12-06T14:32:56.561Z,93639.13
2022-12-06T14:35:27.990Z,93644.63
2022-12-06T14:38:23.551Z,93647.88
2022-12-06T14:41:11.350Z,93639.81
2022-12-06T14:43:40.959Z,93634.81
2022-12-06T14:46:12.964Z,93637.19
2022-12-06T14:49:00.212Z,93632.91
2022-12-06T14:51:38.162Z,93639.94
2022-12-06T14:54:35.499Z,93633.25
2022-12-06T14:57:04.517Z,93637.72
2022-12-06T15:00:12.935Z,93638.94
2022-12-06T15:02:27.169Z,93638.06
2022-12-06T15:04:55.781Z,93631.88
2022-12-06T15:07:43.608Z,93627.75
2022-12-06T15:10:20.641Z,93622.47
2022-12-06T15:12:57.158Z,93618.56
2022-12-06T15:15:46.668Z,93600.31
2022-12-06T15:18:24.026Z,93623.22
2022-12-06T15:20:55.955Z,93620.78
2022-12-06T15:23:39.421Z,93621.50
2022-12-06T15:26:13.051Z,93619.53
2022-12-06T15:28:41.942Z,93627.72
2022-12-06T15:31:37.556Z,93618.81
2022-12-06T15:34:25.099Z,93624.59
2022-12-06T15:37:15.262Z,93622.03
2022-12-06T15:39:43.658Z,93616.44
2022-12-06T15:42:20.898Z,93619.81
2022-12-06T15:44:50.820Z,93619.69
2022-12-06T15:47:19.933Z,93625.63
2022-12-06T15:49:54.040Z,93621.16
2022-12-06T15:52:26.272Z,93623.72
2022-12-06T15:54:54.957Z,93627.41
2022-12-06T15:57:22.997Z,93620.41
2022-12-06T15:59:51.186Z,93617.75
2022-12-06T16:02:19.649Z,93608.59
2022-12-06T16:04:52.169Z,93611.44
2022-12-06T16:07:20.459Z,93613.50
2022-12-06T16:09:48.794Z,93605.16
2022-12-06T16:12:18.186Z,93603.66
2022-12-06T16:14:46.157Z,93596.84
2022-12-06T16:17:14.139Z,93610.66
2022-12-06T16:20:02.488Z,93616.03
2022-12-06T16:22:49.225Z,93616.03
2022-12-06T16:25:17.265Z,93607.16
2022-12-06T16:27:45.061Z,93615.41
2022-12-06T16:30:13.738Z,93614.50
2022-12-06T16:32:42.202Z,93616.13
2022-12-06T16:35:10.350Z,93608.25
2022-12-06T16:37:38.840Z,93614.25
2022-12-06T16:40:08.488Z,93611.19
2022-12-06T16:42:37.155Z,93622.34
2022-12-06T16:45:05.917Z,93624.81
2022-12-06T16:47:34.406Z,93624.22
2022-12-06T16:50:03.005Z,93627.75
2022-12-06T16:52:31.737Z,93632.84
2022-12-06T16:55:00.576Z,93625.13
2022-12-06T16:57:28.819Z,93617.19
2022-12-06T16:59:56.856Z,93620.13
2022-12-06T17:02:31.322Z,93614.34
2022-12-06T17:05:01.570Z,93614.16
2022-12-06T17:07:30.470Z,93620.34
2022-12-06T17:09:58.996Z,93617.69
2022-12-06T17:12:27.399Z,93620.72
2022-12-06T17:14:55.491Z,93615.84
2022-12-06T17:17:26.200Z,93611.88
2022-12-06T17:19:56.512Z,93622.03
2022-12-06T17:22:25.042Z,93618.59
2022-12-06T17:24:53.232Z,93621.03
2022-12-06T17:27:21.125Z,93622.63
2022-12-06T17:29:49.538Z,93608.84
2022-12-06T17:32:18.613Z,93610.22
2022-12-06T17:34:47.888Z,93617.75
2022-12-06T17:37:16.346Z,93617.59
2022-12-06T17:39:45.008Z,93626.91
2022-12-06T17:42:31.821Z,93615.50
2022-12-06T17:45:00.218Z,93613.72
2022-12-06T17:47:28.897Z,93603.84
2022-12-06T17:49:57.420Z,93624.56
2022-12-06T17:52:26.156Z,93625.56
2022-12-06T17:54:54.507Z,93614.59
2022-12-06T17:57:23.183Z,93618.91
2022-12-06T17:59:51.655Z,93620.72
2022-12-06T18:02:24.356Z,93615.63
2022-12-06T18:04:54.429Z,93621.28
2022-12-06T18:07:23.126Z,93618.03
2022-12-06T18:09:51.663Z,93622.69
2022-12-06T18:12:20.233Z,93630.22
2022-12-06T18:14:48.813Z,93635.38
2022-12-06T18:17:17.507Z,93616.66
2022-12-06T18:19:47.451Z,93623.38
2022-12-06T18:22:16.624Z,93623.97
2022-12-06T18:24:45.142Z,93632.44
2022-12-06T18:27:13.830Z,93614.38
2022-12-06T18:29:42.652Z,93614.75
2022-12-06T18:32:11.321Z,93616.97
2022-12-06T18:34:39.801Z,93608.34
2022-12-06T18:37:08.583Z,93605.25
2022-12-06T18:39:37.161Z,93612.25
2022-12-06T18:42:05.720Z,93604.25
2022-12-06T18:44:34.265Z,93604.59
2022-12-06T18:47:02.782Z,93608.09
2022-12-06T18:49:31.239Z,93610.72
2022-12-06T18:51:59.354Z,93605.19
2022-12-06T18:54:30.519Z,93607.00
2022-12-06T18:56:59.772Z,93601.66
2022-12-06T18:59:29.165Z,93610.03
2022-12-06T19:01:57.787Z,93598.06
2022-12-06T19:04:26.541Z,93602.69
2022-12-06T19:06:55.134Z,93600.22
2022-12-06T19:09:23.608Z,93599.25
2022-12-06T19:11:52.369Z,93592.09
2022-12-06T19:14:20.623Z,93601.16
2022-12-06T19:16:50.702Z,93593.84
2022-12-06T19:19:22.649Z,93595.22
2022-12-06T19:21:53.408Z,93598.06
2022-12-06T19:24:25.109Z,93601.66
2022-12-06T19:26:58.343Z,93599.59
2022-12-06T19:29:29.387Z,93600.38
2022-12-06T19:31:58.100Z,93599.34
2022-12-06T19:34:29.896Z,93603.03
2022-12-06T19:36:58.356Z,93594.72
2022-12-06T19:39:29.897Z,93594.66
2022-12-06T19:42:17.152Z,93599.34
2022-12-06T19:44:45.574Z,93594.91
2022-12-06T19:47:14.601Z,93588.03
2022-12-06T19:49:42.803Z,93588.03
2022-12-06T19:52:11.176Z,93588.88
2022-12-06T19:54:40.566Z,93578.31
2022-12-06T19:57:09.146Z,93569.81
2022-12-06T19:59:39.755Z,93576.13
2022-12-06T20:02:12.914Z,93568.19
2022-12-06T20:04:42.411Z,93571.09
2022-12-06T20:07:11.207Z,93569.09
2022-12-06T20:09:39.943Z,93567.72
2022-12-06T20:12:08.591Z,93565.53
2022-12-06T20:14:45.712Z,93572.97
2022-12-06T20:17:17.205Z,93563.03
2022-12-06T20:19:46.707Z,93563.25
2022-12-06T20:22:16.707Z,93560.44
2022-12-06T20:24:45.448Z,93565.94
2022-12-06T20:27:14.359Z,93567.56
2022-12-06T20:29:42.876Z,93562.28
2022-12-06T20:32:11.819Z,93563.88
2022-12-06T20:34:40.111Z,93523.25
2022-12-06T20:37:08.112Z,93564.28
2022-12-06T20:39:36.667Z,93542.81
2022-12-06T20:42:07.365Z,93555.91
2022-12-06T20:44:37.322Z,93543.38
2022-12-06T20:47:05.742Z,93549.72
2022-12-06T20:49:34.192Z,93552.31
2022-12-06T20:52:03.992Z,93547.44
2022-12-06T20:54:32.613Z,93544.44
2022-12-06T20:57:00.809Z,93547.00
2022-12-06T20:59:29.821Z,93547.69
2022-12-06T21:01:58.126Z,93531.34
2022-12-06T21:04:30.105Z,93544.03
2022-12-06T21:06:58.520Z,93539.19
2022-12-06T21:09:27.054Z,93534.25
2022-12-06T21:11:55.442Z,93521.75
2022-12-06T21:14:23.672Z,93529.66
2022-12-06T21:16:52.289Z,93526.03
2022-12-06T21:19:20.672Z,93529.97
2022-12-06T21:21:51.831Z,93516.41
2022-12-06T21:24:22.152Z,93528.75
2022-12-06T21:26:50.481Z,93518.94
2022-12-06T21:29:29.735Z,93529.84
2022-12-06T21:32:01.821Z,93514.72
2022-12-06T21:34:30.307Z,93528.34
2022-12-06T21:36:58.556Z,93531.25
2022-12-06T21:39:26.808Z,93530.09
2022-12-06T21:41:55.193Z,93531.03
2022-12-06T21:44:24.264Z,93522.03
2022-12-06T21:46:53.792Z,93532.81
2022-12-06T21:49:21.874Z,93529.72
2022-12-06T21:51:52.680Z,93542.63
2022-12-06T21:54:23.121Z,93539.66
2022-12-06T21:56:51.155Z,93527.84
2022-12-06T21:59:19.486Z,93525.28
2022-12-06T22:01:50.515Z,93525.84
2022-12-06T22:04:18.608Z,93526.06
2022-12-06T22:06:46.672Z,93536.63
2022-12-06T22:09:14.634Z,93538.84
2022-12-06T22:11:42.801Z,93540.66
2022-12-06T22:14:11.612Z,93534.28
2022-12-06T22:16:40.014Z,93530.75
2022-12-06T22:19:07.883Z,93529.72
2022-12-06T22:21:35.904Z,93521.97
2022-12-06T22:24:03.929Z,93530.75
2022-12-06T22:26:32.303Z,93529.63
2022-12-06T22:29:01.414Z,93525.94
2022-12-06T22:31:30.465Z,93525.09
2022-12-06T22:33:59.039Z,93521.72
2022-12-06T22:36:29.665Z,93528.56
2022-12-06T22:39:00.163Z,93521.78
2022-12-06T22:41:29.158Z,93524.88
2022-12-06T22:43:59.691Z,93528.44
2022-12-06T22:46:29.182Z,93526.75
2022-12-06T22:48:58.200Z,93526.88
2022-12-06T22:51:29.325Z,93507.56
2022-12-06T22:53:59.660Z,93511.75
2022-12-06T22:56:29.471Z,93518.97
2022-12-06T22:58:59.207Z,93516.91
2022-12-06T23:01:30.222Z,93509.09
2022-12-06T23:04:00.576Z,93495.03
2022-12-06T23:06:29.184Z,93506.28
2022-12-06T23:08:57.500Z,93499.44
2022-12-06T23:11:30.400Z,93499.47
2022-12-06T23:13:59.193Z,93497.13
2022-12-06T23:16:29.443Z,93495.06
2022-12-06T23:19:03.354Z,93487.06
2022-12-06T23:21:33.367Z,93484.44
2022-12-06T23:24:04.653Z,93482.53
2022-12-06T23:26:38.268Z,93480.16
2022-12-06T23:29:06.452Z,93485.41
2022-12-06T23:31:37.687Z,93478.69
2022-12-06T23:34:11.238Z,93475.25
2022-12-06T23:36:39.194Z,93472.97
2022-12-06T23:39:07.277Z,93480.53
2022-12-06T23:41:36.202Z,93489.44
2022-12-06T23:44:06.397Z,93486.38
2022-12-06T23:46:36.799Z,93486.00
2022-12-06T23:49:06.835Z,93500.09
2022-12-06T23:51:37.334Z,93500.09
2022-12-06T23:54:07.271Z,93492.81
2022-12-06T23:56:38.081Z,93483.78
2022-12-06T23:59:07.322Z,93473.88
